createdAt,value
2023-04-19T05:02:41.935Z,3.03
2023-04-19T05:05:11.473Z,2.78
2023-04-19T05:07:38.774Z,2.53
2023-04-19T05:10:06.378Z,2.15
2023-04-19T05:12:43.108Z,2.90
2023-04-19T05:15:11.892Z,3.30
2023-04-19T05:17:46.655Z,2.58
2023-04-19T05:20:16.813Z,3.03
2023-04-19T05:22:49.075Z,2.35
2023-04-19T05:25:15.883Z,2.10
2023-04-19T05:27:43.492Z,2.55
2023-04-19T05:30:10.964Z,2.53
2023-04-19T05:32:42.587Z,2.47
2023-04-19T05:35:11.751Z,2.70
2023-04-19T05:37:39.795Z,2.25
2023-04-19T05:40:13.626Z,1.63
2023-04-19T05:42:41.200Z,2.63
2023-04-19T05:45:12.852Z,2.88
2023-04-19T05:47:43.405Z,2.10
2023-04-19T05:50:15.002Z,2.35
2023-04-19T05:52:47.832Z,2.55
2023-04-19T05:57:50.568Z,2.83
2023-04-19T06:00:17.650Z,2.30
2023-04-19T06:02:54.973Z,2.38
2023-04-19T06:05:22.587Z,2.70
2023-04-19T06:07:55.075Z,2.28
2023-04-19T06:10:36.739Z,2.30
2023-04-19T06:13:09.840Z,2.42
2023-04-19T06:15:37.417Z,2.38
2023-04-19T06:18:05.803Z,3.30
2023-04-19T06:20:32.694Z,2.58
2023-04-19T06:22:59.544Z,2.40
2023-04-19T06:25:26.864Z,2.55
2023-04-19T06:27:54.992Z,2.35
2023-04-19T06:30:28.986Z,3.03
2023-04-19T06:32:56.069Z,2.75
2023-04-19T06:35:25.401Z,2.85
2023-04-19T06:37:56.762Z,2.70
2023-04-19T06:40:26.213Z,2.22
2023-04-19T06:43:07.548Z,2.88
2023-04-19T06:45:40.195Z,2.50
2023-04-19T06:48:08.632Z,2.08
2023-04-19T06:50:36.235Z,2.37
2023-04-19T06:53:05.502Z,2.45
2023-04-19T06:58:07.721Z,2.85
2023-04-19T07:00:35.255Z,3.28
2023-04-19T07:03:02.226Z,2.30
2023-04-19T07:05:31.459Z,2.53
2023-04-19T07:07:58.481Z,2.57
2023-04-19T07:10:31.821Z,2.40
2023-04-19T07:13:00.042Z,2.17
2023-04-19T07:15:27.464Z,2.05
2023-04-19T07:17:54.218Z,2.38
2023-04-19T07:20:21.972Z,2.72
2023-04-19T07:22:48.656Z,2.53
2023-04-19T07:25:15.891Z,3.28
2023-04-19T07:27:42.598Z,2.60
2023-04-19T07:30:10.413Z,2.60
2023-04-19T07:32:37.132Z,2.78
2023-04-19T07:35:04.816Z,2.83
2023-04-19T07:37:31.579Z,2.55
2023-04-19T07:39:58.551Z,2.50
2023-04-19T07:42:26.008Z,2.13
2023-04-19T07:44:53.395Z,2.30
2023-04-19T07:47:20.132Z,2.58
2023-04-19T07:49:47.344Z,2.97
2023-04-19T07:52:14.059Z,2.65
2023-04-19T07:54:41.458Z,2.55
2023-04-19T07:57:08.166Z,2.35
2023-04-19T07:59:35.647Z,2.15
2023-04-19T08:02:05.687Z,2.40
2023-04-19T08:04:33.235Z,2.00
2023-04-19T08:07:00.064Z,2.42
2023-04-19T08:09:27.474Z,2.28
2023-04-19T08:11:54.166Z,2.53
2023-04-19T08:14:34.723Z,1.90
2023-04-19T08:17:25.713Z,2.13
2023-04-19T08:19:57.193Z,2.30
2023-04-19T08:22:23.846Z,2.30
2023-04-19T08:24:54.331Z,2.10
2023-04-19T08:27:22.071Z,2.38
2023-04-19T08:29:53.110Z,2.67
2023-04-19T08:32:20.251Z,2.95
2023-04-19T08:34:47.780Z,3.00
2023-04-19T08:37:38.990Z,2.70
2023-04-19T08:40:06.894Z,3.10
2023-04-19T08:42:36.707Z,2.50
2023-04-19T08:47:51.935Z,2.17
2023-04-19T08:50:33.284Z,2.42
2023-04-19T08:55:47.315Z,2.95
2023-04-19T08:58:32.804Z,2.80
2023-04-19T09:01:12.940Z,2.75
2023-04-19T09:04:00.191Z,2.67
2023-04-19T09:06:39.031Z,2.90
2023-04-19T09:12:00.553Z,2.72
2023-04-19T09:14:28.284Z,3.15
2023-04-19T09:17:12.775Z,2.80
2023-04-19T09:19:49.683Z,2.90
2023-04-19T09:22:18.125Z,2.72
2023-04-19T09:27:33.218Z,2.92
2023-04-19T09:30:01.368Z,2.80
2023-04-19T09:32:29.519Z,2.63
2023-04-19T09:34:58.282Z,2.70
2023-04-19T09:37:51.391Z,2.97
2023-04-19T09:40:24.348Z,3.15
2023-04-19T09:45:29.839Z,2.35
2023-04-19T09:48:02.845Z,2.70
2023-04-19T09:50:31.553Z,2.40
2023-04-19T09:52:59.691Z,2.60
2023-04-19T09:55:28.791Z,2.35
2023-04-19T09:57:56.996Z,2.83
2023-04-19T10:00:23.733Z,3.05
2023-04-19T10:02:58.733Z,2.35
2023-04-19T10:05:26.450Z,2.35
2023-04-19T10:07:59.526Z,2.10
2023-04-19T10:18:07.525Z,2.30
2023-04-19T10:21:02.140Z,2.45
2023-04-19T10:23:30.293Z,2.72
2023-04-19T10:25:57.980Z,2.30
2023-04-19T10:28:25.576Z,2.40
2023-04-19T10:31:01.564Z,2.88
2023-04-19T10:33:32.157Z,2.97
2023-04-19T10:35:59.716Z,2.72
2023-04-19T10:38:44.778Z,2.70
2023-04-19T10:41:14.581Z,2.22
2023-04-19T10:43:49.016Z,2.35
2023-04-19T10:46:21.350Z,3.28
2023-04-19T10:48:58.645Z,2.85
2023-04-19T10:51:38.818Z,2.42
2023-04-19T10:54:27.671Z,2.33
2023-04-19T10:57:06.162Z,2.20
2023-04-19T10:59:40.917Z,2.25
2023-04-19T11:02:22.905Z,2.63
2023-04-19T11:04:50.471Z,2.60
2023-04-19T11:07:21.392Z,2.33
2023-04-19T11:09:49.930Z,2.40
2023-04-19T11:12:18.589Z,2.63
2023-04-19T11:14:51.646Z,2.30
2023-04-19T11:17:27.465Z,2.33
2023-04-19T11:19:59.866Z,2.33
2023-04-19T11:22:33.702Z,2.38
2023-04-19T11:25:19.682Z,1.95
2023-04-19T11:27:52.191Z,2.67
2023-04-19T11:30:29.444Z,2.15
2023-04-19T11:32:57.483Z,2.25
2023-04-19T11:35:26.956Z,2.50
2023-04-19T11:37:55.086Z,2.22
2023-04-19T11:40:24.130Z,2.13
2023-04-19T11:43:02.408Z,2.40
2023-04-19T11:45:40.040Z,4.40
2023-04-19T11:48:16.932Z,6.15
2023-04-19T11:50:45.403Z,4.85
2023-04-19T11:53:17.372Z,3.72
2023-04-19T11:56:03.488Z,3.00
2023-04-19T11:58:44.522Z,2.50
2023-04-19T12:01:16.860Z,3.08
2023-04-19T12:03:52.437Z,2.65
2023-04-19T12:06:32.175Z,2.08
2023-04-19T12:08:59.071Z,2.55
2023-04-19T12:11:42.196Z,2.25
2023-04-19T12:14:14.268Z,2.75
2023-04-19T12:16:42.517Z,2.80
2023-04-19T12:19:20.458Z,2.22
2023-04-19T12:21:48.139Z,3.03
2023-04-19T12:24:16.474Z,2.55
2023-04-19T12:27:04.524Z,2.25
2023-04-19T12:29:31.997Z,1.83
2023-04-19T12:31:59.919Z,2.55
2023-04-19T12:34:26.929Z,2.03
2023-04-19T12:36:54.412Z,2.22
2023-04-19T12:39:21.099Z,2.15
2023-04-19T12:41:49.369Z,2.40
2023-04-19T12:44:16.301Z,1.85
2023-04-19T12:46:43.512Z,1.92
2023-04-19T12:49:10.094Z,1.70
2023-04-19T12:51:37.400Z,1.80
2023-04-19T12:54:04.190Z,1.88
2023-04-19T12:56:31.488Z,1.60
2023-04-19T12:58:58.083Z,1.80
2023-04-19T13:01:25.385Z,1.77
2023-04-19T13:03:52.165Z,1.63
2023-04-19T13:06:19.679Z,1.73
2023-04-19T13:08:47.930Z,1.30
2023-04-19T13:11:16.170Z,1.90
2023-04-19T13:13:42.861Z,1.58
2023-04-19T13:16:10.268Z,1.65
2023-04-19T13:18:36.933Z,1.77
2023-04-19T13:21:06.640Z,1.40
2023-04-19T13:23:34.648Z,1.55
2023-04-19T13:26:01.857Z,1.80
2023-04-19T13:28:28.540Z,2.10
2023-04-19T13:30:55.502Z,2.00
2023-04-19T13:33:22.143Z,2.08
2023-04-19T13:35:49.137Z,1.70
2023-04-19T13:38:15.941Z,1.90
2023-04-19T13:40:44.612Z,2.10
2023-04-19T13:43:11.199Z,2.00
2023-04-19T13:45:38.422Z,1.70
2023-04-19T13:48:05.526Z,2.28
2023-04-19T13:50:32.949Z,3.00
2023-04-19T13:52:59.659Z,2.10
2023-04-19T13:55:27.415Z,1.70
2023-04-19T13:57:54.015Z,1.67
2023-04-19T14:00:21.810Z,2.33
2023-04-19T14:02:50.169Z,2.10
2023-04-19T14:05:19.556Z,2.10
2023-04-19T14:07:46.426Z,1.60
2023-04-19T14:10:13.695Z,2.38
2023-04-19T14:12:40.832Z,1.83
2023-04-19T14:15:08.378Z,2.67
2023-04-19T14:17:35.984Z,1.63
2023-04-19T14:20:06.885Z,2.13
2023-04-19T14:22:35.085Z,2.00
2023-04-19T14:25:03.380Z,1.98
2023-04-19T14:27:30.314Z,2.20
2023-04-19T14:29:57.722Z,2.15
2023-04-19T14:32:26.455Z,2.17
2023-04-19T14:34:55.590Z,2.70
2023-04-19T14:37:23.777Z,2.50
2023-04-19T14:39:51.104Z,2.17
2023-04-19T14:42:20.025Z,2.33
2023-04-19T14:44:50.999Z,2.30
2023-04-19T14:47:17.692Z,2.08
2023-04-19T14:49:45.044Z,2.13
2023-04-19T14:52:11.842Z,2.45
2023-04-19T14:54:39.073Z,2.20
2023-04-19T14:57:05.703Z,2.28
2023-04-19T14:59:33.077Z,2.00
2023-04-19T15:01:59.710Z,2.10
2023-04-19T15:04:27.195Z,2.42
2023-04-19T15:06:53.915Z,2.38
2023-04-19T15:09:21.310Z,2.30
2023-04-19T15:11:47.931Z,2.40
2023-04-19T15:14:15.217Z,2.63
2023-04-19T15:16:42.386Z,2.50
2023-04-19T15:19:09.728Z,2.25
2023-04-19T15:21:36.294Z,3.08
2023-04-19T15:24:04.167Z,2.10
2023-04-19T15:26:30.769Z,2.35
2023-04-19T15:28:58.070Z,2.58
2023-04-19T15:31:25.355Z,2.63
2023-04-19T15:33:53.545Z,2.40
2023-04-19T15:36:20.198Z,2.40
2023-04-19T15:38:47.190Z,2.58
2023-04-19T15:41:13.845Z,2.90
2023-04-19T15:43:41.223Z,3.20
2023-04-19T15:46:14.856Z,2.60
2023-04-19T15:48:42.362Z,2.78
2023-04-19T15:51:10.497Z,2.67
2023-04-19T15:53:37.878Z,2.95
2023-04-19T15:56:05.366Z,3.15
2023-04-19T15:58:32.588Z,2.55
2023-04-19T16:00:59.184Z,2.50
2023-04-19T16:03:26.673Z,3.38
2023-04-19T16:05:53.335Z,2.83
2023-04-19T16:08:20.308Z,3.50
2023-04-19T16:10:47.996Z,3.30
2023-04-19T16:13:16.579Z,2.92
2023-04-19T16:15:45.352Z,3.55
2023-04-19T16:18:15.809Z,2.95
2023-04-19T16:20:42.449Z,3.50
2023-04-19T16:23:09.774Z,3.55
2023-04-19T16:25:36.457Z,3.60
2023-04-19T16:28:03.390Z,3.60
2023-04-19T16:30:29.993Z,3.00
2023-04-19T16:32:58.905Z,3.47
2023-04-19T16:35:26.708Z,3.70
2023-04-19T16:37:56.708Z,3.33
2023-04-19T16:40:24.162Z,2.72
2023-04-19T16:42:51.302Z,3.45
2023-04-19T16:45:19.308Z,4.47
2023-04-19T16:47:46.785Z,2.85
2023-04-19T16:50:14.114Z,2.90
2023-04-19T16:52:41.459Z,2.35
2023-04-19T16:55:09.340Z,3.20
2023-04-19T16:57:37.117Z,3.28
2023-04-19T17:00:05.929Z,2.50
2023-04-19T17:02:33.926Z,3.10
2023-04-19T17:05:01.119Z,2.50
2023-04-19T17:07:28.656Z,3.20
2023-04-19T17:09:55.852Z,3.20
2023-04-19T17:12:23.144Z,3.08
2023-04-19T17:14:49.874Z,2.55
2023-04-19T17:17:20.186Z,2.55
2023-04-19T17:19:47.232Z,2.53
2023-04-19T17:22:17.584Z,3.35
2023-04-19T17:24:44.148Z,2.67
2023-04-19T17:27:11.904Z,3.75
2023-04-19T17:29:38.578Z,3.13
2023-04-19T17:32:06.898Z,2.83
2023-04-19T17:34:36.561Z,2.72
2023-04-19T17:37:04.261Z,3.35
2023-04-19T17:39:30.947Z,3.08
2023-04-19T17:41:58.437Z,3.55
2023-04-19T17:44:25.152Z,2.63
2023-04-19T17:46:52.675Z,2.10
2023-04-19T17:49:21.171Z,2.92
2023-04-19T17:51:48.377Z,2.47
2023-04-19T17:54:16.621Z,2.40
2023-04-19T17:56:43.371Z,2.65
2023-04-19T17:59:10.664Z,2.67
2023-04-19T18:01:37.991Z,3.00
2023-04-19T18:04:05.878Z,3.00
2023-04-19T18:06:32.811Z,2.45
2023-04-19T18:09:00.825Z,2.45
2023-04-19T18:11:28.690Z,2.55
2023-04-19T18:13:57.270Z,2.65
2023-04-19T18:16:23.920Z,2.28
2023-04-19T18:18:51.765Z,2.88
2023-04-19T18:21:19.019Z,2.20
2023-04-19T18:23:46.475Z,3.03
2023-04-19T18:26:13.369Z,2.50
2023-04-19T18:28:40.850Z,3.00
2023-04-19T18:31:08.754Z,3.13
2023-04-19T18:33:36.850Z,2.55
2023-04-19T18:36:05.949Z,2.50
2023-04-19T18:38:33.991Z,2.65
2023-04-19T18:41:00.765Z,2.90
2023-04-19T18:43:30.911Z,2.60
2023-04-19T18:46:00.662Z,2.92
2023-04-19T18:48:29.736Z,2.38
2023-04-19T18:50:59.949Z,2.37
2023-04-19T18:53:30.408Z,2.92
2023-04-19T18:55:57.881Z,2.85
2023-04-19T18:58:27.225Z,2.60
2023-04-19T19:00:54.903Z,2.70
2023-04-19T19:05:57.965Z,2.58
2023-04-19T19:08:41.869Z,2.55
2023-04-19T19:11:33.155Z,2.78
2023-04-19T19:14:02.877Z,3.22
2023-04-19T19:16:31.093Z,3.10
2023-04-19T19:18:58.373Z,3.10
2023-04-19T19:21:25.151Z,2.55
2023-04-19T19:23:54.774Z,3.03
2023-04-19T19:26:22.370Z,2.85
2023-04-19T19:28:49.634Z,2.95
2023-04-19T19:31:16.177Z,3.28
2023-04-19T19:33:50.138Z,3.42
2023-04-19T19:36:21.527Z,3.80
2023-04-19T19:38:50.976Z,3.25
2023-04-19T19:43:48.383Z,3.28
2023-04-19T19:46:17.533Z,2.97
2023-04-19T19:48:45.040Z,3.88
2023-04-19T19:53:42.067Z,3.15
2023-04-19T19:56:18.401Z,3.38
2023-04-19T19:58:51.712Z,4.22
2023-04-19T20:01:22.448Z,3.75
2023-04-19T20:03:51.186Z,2.97
2023-04-19T20:07:03.350Z,3.15
2023-04-19T20:09:08.342Z,3.33
2023-04-19T20:11:35.216Z,3.47
2023-04-19T20:14:03.187Z,3.30
2023-04-19T20:16:30.021Z,3.97
2023-04-19T20:18:58.136Z,3.00
2023-04-19T20:21:24.710Z,3.38
2023-04-19T20:23:52.992Z,3.63
2023-04-19T20:26:19.531Z,3.20
2023-04-19T20:28:46.716Z,3.13
